createdAt,value
2022-12-04T00:01:21.719Z,37.28
2022-12-04T00:03:51.487Z,39.50
2022-12-04T00:06:20.136Z,38.55
2022-12-04T00:08:47.830Z,36.80
2022-12-04T00:11:18.524Z,34.50
2022-12-04T00:13:45.842Z,44.00
2022-12-04T00:16:16.383Z,33.63
2022-12-04T00:18:43.440Z,34.38
2022-12-04T00:21:11.913Z,40.67
2022-12-04T00:23:39.712Z,36.22
2022-12-04T00:26:19.349Z,35.00
2022-12-04T00:28:46.974Z,35.22
2022-12-04T00:31:16.910Z,34.55
2022-12-04T00:33:43.787Z,36.42
2022-12-04T00:36:13.877Z,40.70
2022-12-04T00:38:40.839Z,34.38
2022-12-04T00:41:12.799Z,34.85
2022-12-04T00:43:39.929Z,40.42
2022-12-04T00:46:07.605Z,35.97
2022-12-04T00:48:34.922Z,40.83
2022-12-04T00:51:07.237Z,40.05
2022-12-04T00:53:34.320Z,40.22
2022-12-04T00:56:06.432Z,39.83
2022-12-04T00:58:33.606Z,38.47
2022-12-04T01:01:15.619Z,35.95
2022-12-04T01:03:43.155Z,40.05
2022-12-04T01:06:26.457Z,40.45
2022-12-04T01:08:54.873Z,32.10
2022-12-04T01:11:24.091Z,45.40
2022-12-04T01:13:51.344Z,37.10
2022-12-04T01:16:31.890Z,40.97
2022-12-04T01:18:59.057Z,39.40
2022-12-04T01:21:26.982Z,36.20
2022-12-04T01:23:53.894Z,37.10
2022-12-04T01:26:21.308Z,38.80
2022-12-04T01:28:48.794Z,35.40
2022-12-04T01:31:19.151Z,39.15
2022-12-04T01:33:46.712Z,36.08
2022-12-04T01:36:17.212Z,39.13
2022-12-04T01:38:44.225Z,41.75
2022-12-04T01:41:13.319Z,40.00
2022-12-04T01:43:41.182Z,41.75
2022-12-04T01:46:09.221Z,41.88
2022-12-04T01:48:41.074Z,37.80
2022-12-04T01:51:35.828Z,39.78
2022-12-04T01:56:36.742Z,38.03
2022-12-04T01:59:05.226Z,40.75
2022-12-04T02:01:40.489Z,37.08
2022-12-04T02:04:07.374Z,41.88
2022-12-04T02:06:34.467Z,36.45
2022-12-04T02:09:01.540Z,45.42
2022-12-04T02:11:52.885Z,35.85
2022-12-04T02:14:42.453Z,40.88
2022-12-04T02:17:09.391Z,41.53
2022-12-04T02:19:57.121Z,46.53
2022-12-04T02:22:30.053Z,39.92
2022-12-04T02:25:37.223Z,44.20
2022-12-04T02:28:17.699Z,39.63
2022-12-04T02:30:45.745Z,39.00
2022-12-04T02:33:31.429Z,43.67
2022-12-04T02:36:13.090Z,40.83
2022-12-04T02:38:50.366Z,43.72
2022-12-04T02:41:23.104Z,40.35
2022-12-04T02:44:03.209Z,43.17
2022-12-04T02:46:36.711Z,46.95
2022-12-04T02:51:36.348Z,47.53
2022-12-04T02:54:09.362Z,46.05
2022-12-04T02:56:41.038Z,44.45
2022-12-04T02:59:14.042Z,42.53
2022-12-04T03:01:45.581Z,46.97
2022-12-04T03:04:20.881Z,49.15
2022-12-04T03:06:57.437Z,37.25
2022-12-04T03:09:40.855Z,43.67
2022-12-04T03:12:25.962Z,51.83
2022-12-04T03:15:00.298Z,41.95
2022-12-04T03:17:36.254Z,41.80
2022-12-04T03:20:09.779Z,41.58
2022-12-04T03:22:40.860Z,44.47
2022-12-04T03:25:11.922Z,42.60
2022-12-04T03:27:44.742Z,43.80
2022-12-04T03:30:16.016Z,39.50
2022-12-04T03:32:50.403Z,47.45
2022-12-04T03:35:20.298Z,46.50
2022-12-04T03:38:00.686Z,46.95
2022-12-04T03:40:54.258Z,40.95
2022-12-04T03:43:49.039Z,42.25
2022-12-04T03:47:04.898Z,41.95
2022-12-04T03:49:42.583Z,40.13
2022-12-04T03:52:32.834Z,42.75
2022-12-04T03:55:01.873Z,40.88
2022-12-04T03:57:33.877Z,43.72
2022-12-04T04:00:16.569Z,52.97
2022-12-04T04:02:57.402Z,44.50
2022-12-04T04:05:27.454Z,42.00
2022-12-04T04:08:20.458Z,42.60
2022-12-04T04:10:49.395Z,50.05
2022-12-04T04:13:40.798Z,43.70
2022-12-04T04:16:30.103Z,45.03
2022-12-04T04:19:17.494Z,43.90
2022-12-04T04:22:05.111Z,42.78
2022-12-04T04:24:42.778Z,42.95
2022-12-04T04:27:09.586Z,47.88
2022-12-04T04:29:37.643Z,42.35
2022-12-04T04:32:23.093Z,52.47
2022-12-04T04:35:04.030Z,41.20
2022-12-04T04:37:53.121Z,38.53
2022-12-04T04:40:46.911Z,47.47
2022-12-04T04:43:38.650Z,50.33
2022-12-04T04:46:08.318Z,37.60
2022-12-04T04:48:42.571Z,50.67
2022-12-04T04:51:10.658Z,42.92
2022-12-04T04:53:54.146Z,48.42
2022-12-04T04:56:21.845Z,46.40
2022-12-04T04:58:49.339Z,47.45
2022-12-04T05:01:19.548Z,43.25
2022-12-04T05:03:46.596Z,45.08
2022-12-04T05:06:13.825Z,48.25
2022-12-04T05:08:41.243Z,48.50
2022-12-04T05:11:14.243Z,47.55
2022-12-04T05:13:41.611Z,48.90
2022-12-04T05:16:12.887Z,45.13
2022-12-04T05:18:40.107Z,44.95
2022-12-04T05:21:09.565Z,50.83
2022-12-04T05:23:36.339Z,46.53
2022-12-04T05:26:05.241Z,43.78
2022-12-04T05:28:32.226Z,42.85
2022-12-04T05:31:01.440Z,49.88
2022-12-04T05:33:28.738Z,39.88
2022-12-04T05:36:00.894Z,45.50
2022-12-04T05:38:27.894Z,44.55
2022-12-04T05:40:54.908Z,42.03
2022-12-04T05:43:21.671Z,45.45
2022-12-04T05:45:48.727Z,43.08
2022-12-04T05:48:15.469Z,45.75
2022-12-04T05:50:42.509Z,53.80
2022-12-04T05:53:09.454Z,46.08
2022-12-04T05:55:37.467Z,48.22
2022-12-04T05:58:04.735Z,45.33
2022-12-04T06:00:32.216Z,39.53
2022-12-04T06:02:59.034Z,44.28
2022-12-04T06:05:26.304Z,46.58
2022-12-04T06:07:53.146Z,44.50
2022-12-04T06:10:20.178Z,41.92
2022-12-04T06:12:47.042Z,43.75
2022-12-04T06:15:14.058Z,52.05
2022-12-04T06:17:40.801Z,45.10
2022-12-04T06:20:11.711Z,46.80
2022-12-04T06:22:38.873Z,46.28
2022-12-04T06:25:07.054Z,47.55
2022-12-04T06:27:34.133Z,49.22
2022-12-04T06:30:01.531Z,44.22
2022-12-04T06:32:28.366Z,55.38
2022-12-04T06:34:55.687Z,47.65
2022-12-04T06:37:24.452Z,48.08
2022-12-04T06:39:51.715Z,56.63
2022-12-04T06:42:18.724Z,50.53
2022-12-04T06:44:45.768Z,47.92
2022-12-04T06:47:15.365Z,50.15
2022-12-04T06:49:42.462Z,53.22
2022-12-04T06:52:09.189Z,42.00
2022-12-04T06:54:36.293Z,49.30
2022-12-04T06:57:03.028Z,52.67
2022-12-04T06:59:30.141Z,57.75
2022-12-04T07:01:57.033Z,51.17
2022-12-04T07:04:24.755Z,47.55
2022-12-04T07:06:51.483Z,54.83
2022-12-04T07:09:18.579Z,53.15
2022-12-04T07:11:46.106Z,61.70
2022-12-04T07:14:14.173Z,46.60
2022-12-04T07:16:42.703Z,60.05
2022-12-04T07:19:11.707Z,51.78
2022-12-04T07:21:38.893Z,51.75
2022-12-04T07:24:06.194Z,47.70
2022-12-04T07:26:33.148Z,48.17
2022-12-04T07:29:00.442Z,51.33
2022-12-04T07:31:29.468Z,56.33
2022-12-04T07:33:57.878Z,56.63
2022-12-04T07:36:26.238Z,48.95
2022-12-04T07:38:55.930Z,52.20
2022-12-04T07:41:22.744Z,49.08
2022-12-04T07:43:49.830Z,49.58
2022-12-04T07:46:20.748Z,54.05
2022-12-04T07:48:47.871Z,51.15
2022-12-04T07:51:20.726Z,51.85
2022-12-04T07:53:48.076Z,52.25
2022-12-04T07:56:15.511Z,53.75
2022-12-04T07:58:43.299Z,51.47
2022-12-04T08:01:17.265Z,49.10
2022-12-04T08:03:48.418Z,54.85
2022-12-04T08:06:20.254Z,49.45
2022-12-04T08:08:47.935Z,45.90
2022-12-04T08:11:17.492Z,57.15
2022-12-04T08:13:45.467Z,47.50
2022-12-04T08:16:13.227Z,46.97
2022-12-04T08:18:41.474Z,47.40
2022-12-04T08:21:14.075Z,47.97
2022-12-04T08:23:42.684Z,43.93
2022-12-04T08:26:09.992Z,55.33
2022-12-04T08:28:38.097Z,51.78
2022-12-04T08:31:07.525Z,49.13
2022-12-04T08:33:35.232Z,47.13
2022-12-04T08:36:02.339Z,43.67
2022-12-04T08:38:29.387Z,55.17
2022-12-04T08:41:00.263Z,51.95
2022-12-04T08:43:27.452Z,44.60
2022-12-04T08:45:58.871Z,48.95
2022-12-04T08:48:26.626Z,45.53
2022-12-04T08:50:53.855Z,42.00
2022-12-04T08:53:21.678Z,46.25
2022-12-04T08:55:48.537Z,41.58
2022-12-04T08:58:16.059Z,48.30
2022-12-04T09:00:43.170Z,43.05
2022-12-04T09:03:14.747Z,44.00
2022-12-04T09:05:42.149Z,39.63
2022-12-04T09:08:09.389Z,43.70
2022-12-04T09:10:36.695Z,40.63
2022-12-04T09:13:04.066Z,42.58
2022-12-04T09:15:31.678Z,37.28
2022-12-04T09:17:59.221Z,41.38
2022-12-04T09:20:26.262Z,41.30
2022-12-04T09:23:03.919Z,42.38
2022-12-04T09:25:32.234Z,36.08
2022-12-04T09:27:59.239Z,40.78
2022-12-04T09:30:25.969Z,40.25
2022-12-04T09:32:53.239Z,38.70
2022-12-04T09:35:20.071Z,40.05
2022-12-04T09:37:47.103Z,40.40
2022-12-04T09:40:41.002Z,43.83
2022-12-04T09:43:26.191Z,39.17
2022-12-04T09:45:58.816Z,45.90
2022-12-04T09:48:35.916Z,39.27
2022-12-04T09:51:05.766Z,41.00
2022-12-04T09:53:47.592Z,39.78
2022-12-04T09:56:19.827Z,35.13
2022-12-04T09:58:58.327Z,42.90
2022-12-04T10:01:30.155Z,34.33
2022-12-04T10:04:02.651Z,36.90
2022-12-04T10:06:56.235Z,36.40
2022-12-04T10:09:36.466Z,32.53
2022-12-04T10:12:19.174Z,31.15
2022-12-04T10:15:11.048Z,39.38
2022-12-04T10:17:59.555Z,32.05
2022-12-04T10:21:04.030Z,32.45
2022-12-04T10:23:49.630Z,33.97
2022-12-04T10:26:18.630Z,31.13
2022-12-04T10:28:55.214Z,29.77
2022-12-04T10:31:24.479Z,29.90
2022-12-04T10:33:56.081Z,36.10
2022-12-04T10:36:29.237Z,34.72
2022-12-04T10:39:00.185Z,28.57
2022-12-04T10:41:36.230Z,32.53
2022-12-04T10:44:03.098Z,34.05
2022-12-04T10:46:34.239Z,27.63
2022-12-04T10:49:13.979Z,32.00
2022-12-04T10:51:43.549Z,28.00
2022-12-04T10:54:21.847Z,27.65
2022-12-04T10:56:53.105Z,29.95
2022-12-04T10:59:20.086Z,28.38
2022-12-04T11:01:47.360Z,27.40
2022-12-04T11:04:23.797Z,26.75
2022-12-04T11:06:59.489Z,25.95
2022-12-04T11:09:26.634Z,26.33
2022-12-04T11:11:53.710Z,25.20
2022-12-04T11:14:23.051Z,29.80
2022-12-04T11:17:01.671Z,28.17
2022-12-04T11:19:34.754Z,29.63
2022-12-04T11:22:17.712Z,29.80
2022-12-04T11:24:52.942Z,20.42
2022-12-04T11:27:25.846Z,24.33
2022-12-04T11:29:53.033Z,26.38
2022-12-04T11:32:22.249Z,25.85
2022-12-04T11:34:51.919Z,25.83
2022-12-04T11:37:24.038Z,23.67
2022-12-04T11:39:52.295Z,22.35
2022-12-04T11:42:27.247Z,22.92
2022-12-04T11:45:20.891Z,23.38
2022-12-04T11:47:59.193Z,25.92
2022-12-04T11:51:01.494Z,25.25
2022-12-04T11:53:43.061Z,23.80
2022-12-04T11:56:40.005Z,27.60
2022-12-04T11:59:34.498Z,26.25
2022-12-04T12:02:34.922Z,23.23
2022-12-04T12:05:24.642Z,25.67
2022-12-04T12:08:24.119Z,21.50
2022-12-04T12:10:51.121Z,27.30
2022-12-04T12:13:30.774Z,23.50
2022-12-04T12:16:19.769Z,23.52
2022-12-04T12:19:02.779Z,23.63
2022-12-04T12:22:05.167Z,23.63
2022-12-04T12:25:07.629Z,21.90
2022-12-04T12:27:53.276Z,23.88
2022-12-04T12:30:22.515Z,22.67
2022-12-04T12:32:50.715Z,23.60
2022-12-04T12:35:30.559Z,19.70
2022-12-04T12:38:05.710Z,19.10
2022-12-04T12:40:42.221Z,18.60
2022-12-04T12:43:24.507Z,23.33
2022-12-04T12:45:56.957Z,18.15
2022-12-04T12:48:27.410Z,21.58
2022-12-04T12:51:29.671Z,18.23
2022-12-04T12:54:30.929Z,21.98
2022-12-04T12:57:06.036Z,22.35
2022-12-04T12:59:34.279Z,19.55
2022-12-04T13:02:25.554Z,19.13
2022-12-04T13:04:55.395Z,18.45
2022-12-04T13:07:31.528Z,20.33
2022-12-04T13:10:43.300Z,19.67
2022-12-04T13:13:33.129Z,23.33
2022-12-04T13:16:20.180Z,22.05
2022-12-04T13:19:18.608Z,21.38
2022-12-04T13:22:13.331Z,21.40
2022-12-04T13:27:25.886Z,19.08
2022-12-04T13:30:03.846Z,18.88
2022-12-04T13:32:43.101Z,21.00
2022-12-04T13:35:50.309Z,19.90
2022-12-04T13:38:55.100Z,19.60
2022-12-04T13:41:27.716Z,22.25
2022-12-04T13:43:57.521Z,19.63
2022-12-04T13:46:31.383Z,22.17
2022-12-04T13:49:26.114Z,22.42
2022-12-04T13:54:25.449Z,20.85
2022-12-04T13:56:58.120Z,20.88
2022-12-04T13:59:28.291Z,17.95
2022-12-04T14:02:06.510Z,22.05
2022-12-04T14:04:46.127Z,22.95
2022-12-04T14:07:37.454Z,23.50
2022-12-04T14:10:08.520Z,23.77
2022-12-04T14:12:39.718Z,23.90
2022-12-04T14:15:27.986Z,27.73
2022-12-04T14:18:26.667Z,24.00
2022-12-04T14:21:03.119Z,23.40
2022-12-04T14:23:36.250Z,23.42
2022-12-04T14:26:05.387Z,23.10
2022-12-04T14:28:36.026Z,23.85
2022-12-04T14:31:31.015Z,22.73
2022-12-04T14:34:35.464Z,24.42
2022-12-04T14:37:03.481Z,25.58
2022-12-04T14:39:44.434Z,26.38
2022-12-04T14:42:24.967Z,25.30
2022-12-04T14:44:57.599Z,25.67
2022-12-04T14:47:40.985Z,29.05
2022-12-04T14:50:26.286Z,28.27
2022-12-04T14:52:59.138Z,28.58
2022-12-04T14:55:48.845Z,26.65
2022-12-04T14:58:31.796Z,26.40
2022-12-04T15:01:03.839Z,25.88
2022-12-04T15:03:36.513Z,32.10
2022-12-04T15:06:09.192Z,28.83
2022-12-04T15:08:36.342Z,30.97
2022-12-04T15:11:24.863Z,37.72
2022-12-04T15:13:51.950Z,28.63
2022-12-04T15:16:23.086Z,39.17
2022-12-04T15:18:58.698Z,31.85
2022-12-04T15:21:36.640Z,31.13
2022-12-04T15:24:09.509Z,31.35
2022-12-04T15:26:37.380Z,33.42
2022-12-04T15:29:07.615Z,29.25
2022-12-04T15:31:48.314Z,29.33
2022-12-04T15:34:22.210Z,31.70
2022-12-04T15:36:54.371Z,27.20
2022-12-04T15:39:26.359Z,34.17
2022-12-04T15:42:06.079Z,35.20
2022-12-04T15:44:35.293Z,33.70
2022-12-04T15:47:16.175Z,35.58
2022-12-04T15:49:43.339Z,34.80
2022-12-04T15:52:10.149Z,34.92
2022-12-04T15:54:41.467Z,32.28
2022-12-04T15:57:21.028Z,42.42
2022-12-04T15:59:52.681Z,33.22
2022-12-04T16:02:29.845Z,32.80
2022-12-04T16:04:57.721Z,35.03
2022-12-04T16:07:29.912Z,32.67
2022-12-04T16:10:04.793Z,35.78
2022-12-04T16:12:32.754Z,35.63
2022-12-04T16:14:59.791Z,37.13
2022-12-04T16:17:34.225Z,35.72
2022-12-04T16:20:05.232Z,31.92
2022-12-04T16:22:32.009Z,34.97
2022-12-04T16:24:59.497Z,40.72
2022-12-04T16:27:26.652Z,36.97
2022-12-04T16:29:53.859Z,35.65
2022-12-04T16:32:30.674Z,37.22
2022-12-04T16:34:58.146Z,31.20
2022-12-04T16:37:27.003Z,30.15
2022-12-04T16:39:54.065Z,35.60
2022-12-04T16:42:26.384Z,34.28
2022-12-04T16:44:53.702Z,36.15
2022-12-04T16:47:20.837Z,32.13
2022-12-04T16:49:50.324Z,29.85
2022-12-04T16:52:17.354Z,27.48
2022-12-04T16:54:44.443Z,27.48
2022-12-04T16:57:11.298Z,31.15
2022-12-04T16:59:38.618Z,27.63
2022-12-04T17:02:16.333Z,30.33
2022-12-04T17:04:43.589Z,31.50
2022-12-04T17:07:10.442Z,32.05
2022-12-04T17:09:37.281Z,28.13
2022-12-04T17:12:04.460Z,25.52
2022-12-04T17:14:31.188Z,27.08
2022-12-04T17:16:58.852Z,31.75
2022-12-04T17:19:25.590Z,28.15
2022-12-04T17:21:52.690Z,28.58
2022-12-04T17:24:19.487Z,30.05
2022-12-04T17:26:46.558Z,31.42
2022-12-04T17:29:13.332Z,29.70
2022-12-04T17:31:40.428Z,30.83
2022-12-04T17:34:07.207Z,34.53
2022-12-04T17:36:34.247Z,37.38
2022-12-04T17:39:03.769Z,32.38
2022-12-04T17:41:31.039Z,36.70
2022-12-04T17:43:59.940Z,35.00
2022-12-04T17:46:27.017Z,32.33
2022-12-04T17:48:56.710Z,36.05
2022-12-04T17:51:25.479Z,34.67
2022-12-04T17:53:52.549Z,32.38
2022-12-04T17:56:22.771Z,40.35
2022-12-04T17:58:50.323Z,38.33
2022-12-04T18:01:24.095Z,34.15
2022-12-04T18:03:59.854Z,30.75
2022-12-04T18:06:29.938Z,35.08
2022-12-04T18:08:57.313Z,35.85
2022-12-04T18:11:27.556Z,34.75
2022-12-04T18:14:00.246Z,43.92
2022-12-04T18:16:31.083Z,36.90
2022-12-04T18:19:00.538Z,35.30
2022-12-04T18:21:28.530Z,34.90
2022-12-04T18:24:00.118Z,32.95
2022-12-04T18:26:31.815Z,34.58
2022-12-04T18:28:58.593Z,33.58
2022-12-04T18:31:25.830Z,36.95
2022-12-04T18:33:53.622Z,39.08
2022-12-04T18:36:23.972Z,37.35
2022-12-04T18:38:59.685Z,34.60
2022-12-04T18:41:28.573Z,40.83
2022-12-04T18:43:55.674Z,33.10
2022-12-04T18:46:23.018Z,30.27
2022-12-04T18:48:53.319Z,34.78
2022-12-04T18:51:26.899Z,33.33
2022-12-04T18:53:57.349Z,31.08
2022-12-04T18:56:24.485Z,29.80
2022-12-04T18:58:56.858Z,31.05
2022-12-04T19:01:24.350Z,29.35
2022-12-04T19:03:56.497Z,28.90
2022-12-04T19:06:51.388Z,29.25
2022-12-04T19:09:35.452Z,32.33
2022-12-04T19:12:09.401Z,28.33
2022-12-04T19:14:37.919Z,30.42
2022-12-04T19:17:05.050Z,27.05
2022-12-04T19:19:32.045Z,27.17
2022-12-04T19:22:01.127Z,28.70
2022-12-04T19:24:27.954Z,25.15
2022-12-04T19:26:55.494Z,27.38
2022-12-04T19:29:22.596Z,28.67
2022-12-04T19:31:53.481Z,28.90
2022-12-04T19:34:23.299Z,25.67
2022-12-04T19:36:51.143Z,28.27
2022-12-04T19:39:17.899Z,28.95
2022-12-04T19:41:47.278Z,22.83
2022-12-04T19:44:46.835Z,25.75
2022-12-04T19:47:01.753Z,28.55
2022-12-04T19:49:28.824Z,24.35
2022-12-04T19:51:55.844Z,23.67
2022-12-04T19:54:23.797Z,28.13
2022-12-04T19:56:52.666Z,26.52
2022-12-04T19:59:20.403Z,29.48
2022-12-04T20:01:47.660Z,30.90
2022-12-04T20:04:14.515Z,27.25
2022-12-04T20:06:44.281Z,26.58
2022-12-04T20:09:14.357Z,34.00
2022-12-04T20:11:42.103Z,28.35
2022-12-04T20:14:09.240Z,27.00
2022-12-04T20:16:37.108Z,28.05
2022-12-04T20:19:06.514Z,25.67
2022-12-04T20:21:34.081Z,26.83
2022-12-04T20:24:04.031Z,25.95
2022-12-04T20:26:35.770Z,29.20
2022-12-04T20:29:03.232Z,27.13
2022-12-04T20:31:36.570Z,25.75
2022-12-04T20:34:06.137Z,24.52
2022-12-04T20:36:39.450Z,26.88
2022-12-04T20:39:07.184Z,26.52
2022-12-04T20:41:34.510Z,29.92
2022-12-04T20:44:04.800Z,25.88
2022-12-04T20:46:37.809Z,30.65
2022-12-04T20:49:08.549Z,27.67
2022-12-04T20:51:41.511Z,23.70
2022-12-04T20:54:11.371Z,30.00
2022-12-04T20:56:39.061Z,24.40
2022-12-04T20:59:08.507Z,31.02
2022-12-04T21:01:36.628Z,29.70
2022-12-04T21:04:04.178Z,26.98
2022-12-04T21:06:39.242Z,25.98
2022-12-04T21:09:12.841Z,26.20
2022-12-04T21:11:42.594Z,25.30
2022-12-04T21:14:38.078Z,33.15
2022-12-04T21:17:07.432Z,30.27
2022-12-04T21:19:34.307Z,24.40
2022-12-04T21:22:01.372Z,30.17
2022-12-04T21:24:28.775Z,27.80
2022-12-04T21:26:56.385Z,31.80
2022-12-04T21:29:23.476Z,27.33
2022-12-04T21:31:50.548Z,30.73
2022-12-04T21:34:18.193Z,25.15
2022-12-04T21:36:46.445Z,28.13
2022-12-04T21:39:15.036Z,25.98
2022-12-04T21:42:00.610Z,29.13
2022-12-04T21:44:27.357Z,29.02
2022-12-04T21:46:54.878Z,27.05
2022-12-04T21:49:21.985Z,25.38
2022-12-04T21:51:57.188Z,27.83
2022-12-04T21:54:25.265Z,24.10
2022-12-04T21:56:52.435Z,25.83
2022-12-04T21:59:19.219Z,31.25
2022-12-04T22:01:46.444Z,24.85
2022-12-04T22:04:13.309Z,27.60
2022-12-04T22:06:40.438Z,28.73
2022-12-04T22:09:09.905Z,30.98
2022-12-04T22:11:38.173Z,30.83
2022-12-04T22:14:05.014Z,26.95
2022-12-04T22:16:35.713Z,27.50
2022-12-04T22:19:05.158Z,24.10
2022-12-04T22:21:32.414Z,24.73
2022-12-04T22:24:00.933Z,22.42
2022-12-04T22:26:29.329Z,22.65
2022-12-04T22:28:56.830Z,24.85
2022-12-04T22:31:25.960Z,21.42
2022-12-04T22:33:57.976Z,21.08
2022-12-04T22:36:32.264Z,23.63
2022-12-04T22:39:15.201Z,21.10
2022-12-04T22:41:42.248Z,19.13
2022-12-04T22:44:08.979Z,18.67
2022-12-04T22:46:36.153Z,16.83
2022-12-04T22:49:03.091Z,14.63
2022-12-04T22:51:30.478Z,10.77
2022-12-04T22:53:58.634Z,11.77
2022-12-04T22:56:28.253Z,11.93
2022-12-04T22:58:55.326Z,10.20
2022-12-04T23:01:25.553Z,9.57
2022-12-04T23:03:53.254Z,6.90
2022-12-04T23:06:22.346Z,8.32
2022-12-04T23:08:49.480Z,9.23
2022-12-04T23:11:19.326Z,9.27
2022-12-04T23:13:54.338Z,7.82
2022-12-04T23:16:22.916Z,9.57
2022-12-04T23:18:49.757Z,7.30
2022-12-04T23:21:18.815Z,6.95
2022-12-04T23:23:47.088Z,6.97
2022-12-04T23:26:20.288Z,8.10
2022-12-04T23:28:47.460Z,11.50
2022-12-04T23:31:15.416Z,13.02
2022-12-04T23:33:42.834Z,13.68
2022-12-04T23:36:11.802Z,12.18
2022-12-04T23:38:40.878Z,16.42
2022-12-04T23:41:11.633Z,20.25
2022-12-04T23:43:53.958Z,24.90
2022-12-04T23:46:24.991Z,19.88
2022-12-04T23:48:51.814Z,22.58
2022-12-04T23:51:20.333Z,21.60
2022-12-04T23:53:47.961Z,23.02
2022-12-04T23:56:17.931Z,22.60
2022-12-04T23:58:46.636Z,22.88
